Flugplatz Unterschwaningen (UL)

Hier findest Du alle Informationen zum Flugplatz Unterschwaningen (UL).

Informationen für Piloten zum Flugplatz Unterschwaningen

Hier findest Du alle relevanten Informationen, die Du als Pilot benötigst, um Unterschwaningen anzufliegen.

Flugplatz: Unterschwaningen ICAO-Code: UL Flugplatz
Frequenz Turm: 120.975 Mhz GAFOR Gebiet: 56
Frequenz Ground: 120.975 Mhz Mogas: nein
Platzrunde: N 2000 ft Landegebühr: -
Platzhöhe: Sunrise: 05:07 Uhr UTC
Pisten: 07/25 - 350 m x 25 m, GRAS Sunset: 17:10 Uhr UTC

Flugwetter am Flugplatz Unterschwaningen

Die METAR Information stammen aus EDDN (56.08 km entfernt).

METAR Code:
2018/09/18 17:50
EDDN 181750Z 33001KT CAVOK 24/09 Q1016 NOSIG

Flugschulen am Flugplatz Unterschwaningen

Am Flugplatz Unterschwaningen gibt es leider keine Flugschule.

Benachbarte Flugplätze und Flugschulen

Es gibt 23 weitere Flugplätze in einem Umkreis von 50 km um den Flugplatz Unterschwaningen.

Jetzt anmelden

Passwort vergessen

Umfrage Archiv

Welche Art von Theorieunterricht würde Dir am ehesten zusagen?

Frontalunterricht
63.1 %
Selbststudium
36.9 %
Stimmen: 217 | Diskussion
Anzeige: Roland Aircraft
Statistik Alle Mitglieder

Aktuell sind 32 Besucher online, davon 2 Mitglieder und 30 Gäste.


Mitglieder online:
ta  QDM 

Anzeige: VFR Sprechfunk Simulator


Anzeige: Pocket FMS